createdAt,value
2018-11-14T00:00:23.078Z,1004.96
2018-11-14T00:01:23.065Z,1004.99
2018-11-14T00:02:23.066Z,1004.98
2018-11-14T00:03:23.080Z,1004.95
2018-11-14T00:04:23.037Z,1004.97
2018-11-14T00:05:23.022Z,1004.97
2018-11-14T00:06:23.014Z,1004.90
2018-11-14T00:07:23.013Z,1004.91
2018-11-14T00:08:22.991Z,1004.91
2018-11-14T00:09:23.073Z,1004.91
2018-11-14T00:10:22.978Z,1004.93
2018-11-14T00:11:22.958Z,1004.99
2018-11-14T00:12:22.963Z,1004.93
2018-11-14T00:13:22.935Z,1004.95
2018-11-14T00:14:22.930Z,1004.92
2018-11-14T00:15:22.973Z,1004.94
2018-11-14T00:16:22.912Z,1004.95
2018-11-14T00:17:22.962Z,1004.92
2018-11-14T00:18:22.885Z,1004.89
2018-11-14T00:19:22.880Z,1004.95
2018-11-14T00:20:22.863Z,1004.97
2018-11-14T00:21:22.892Z,1004.94
2018-11-14T00:22:22.859Z,1005.00
2018-11-14T00:23:22.835Z,1004.96
2018-11-14T00:24:22.846Z,1004.99
2018-11-14T00:25:22.819Z,1005.05
2018-11-14T00:26:22.800Z,1005.05
2018-11-14T00:27:22.845Z,1004.97
2018-11-14T00:28:22.777Z,1005.01
2018-11-14T00:29:22.822Z,1005.03
2018-11-14T00:30:22.757Z,1005.02
2018-11-14T00:31:22.745Z,1004.98
2018-11-14T00:32:22.766Z,1004.94
2018-11-14T00:33:22.768Z,1005.02
2018-11-14T00:34:22.729Z,1004.98
2018-11-14T00:35:22.706Z,1004.95
2018-11-14T00:36:22.692Z,1005.00
2018-11-14T00:37:22.699Z,1005.00
2018-11-14T00:38:22.672Z,1004.96
2018-11-14T00:39:22.698Z,1005.06
2018-11-14T00:40:22.648Z,1005.01
2018-11-14T00:41:22.639Z,1005.01
2018-11-14T00:42:22.646Z,1005.05
2018-11-14T00:43:22.618Z,1005.04
2018-11-14T00:44:22.607Z,1005.10
2018-11-14T00:45:22.628Z,1005.03
2018-11-14T00:46:22.588Z,1005.02
2018-11-14T00:47:22.588Z,1005.07
2018-11-14T00:48:22.563Z,1005.06
2018-11-14T00:49:22.555Z,1005.01
2018-11-14T00:50:22.546Z,1005.08
2018-11-14T00:51:22.572Z,1005.09
2018-11-14T00:52:22.535Z,1005.03
2018-11-14T00:53:22.511Z,1005.07
2018-11-14T00:54:22.497Z,1005.04
2018-11-14T00:55:22.490Z,1005.04
2018-11-14T00:56:22.483Z,1004.98
2018-11-14T00:57:22.535Z,1004.97
2018-11-14T00:58:22.456Z,1004.99
2018-11-14T00:59:22.449Z,1004.99
2018-11-14T01:00:22.436Z,1004.95
2018-11-14T01:01:22.429Z,1004.92
2018-11-14T01:02:22.428Z,1004.98
2018-11-14T01:03:22.457Z,1004.97
2018-11-14T01:04:22.396Z,1004.98
2018-11-14T01:05:22.398Z,1004.98
2018-11-14T01:06:22.374Z,1004.98
2018-11-14T01:07:22.372Z,1005.02
2018-11-14T01:08:22.357Z,1004.93
2018-11-14T01:09:22.378Z,1004.96
2018-11-14T01:10:22.329Z,1004.96
2018-11-14T01:11:22.317Z,1004.99
2018-11-14T01:12:22.323Z,1005.00
2018-11-14T01:13:22.359Z,1005.06
2018-11-14T01:14:22.287Z,1005.00
2018-11-14T01:15:22.287Z,1005.01
2018-11-14T01:16:22.281Z,1005.02
2018-11-14T01:17:22.337Z,1005.05
2018-11-14T01:18:22.246Z,1005.00
2018-11-14T01:19:22.236Z,1005.03
2018-11-14T01:20:22.224Z,1005.01
2018-11-14T01:21:22.233Z,1004.98
2018-11-14T01:22:22.214Z,1004.92
2018-11-14T01:23:22.188Z,1004.95
2018-11-14T01:24:22.178Z,1004.94
2018-11-14T01:25:22.173Z,1004.91
2018-11-14T01:26:22.162Z,1004.91
2018-11-14T01:27:22.243Z,1004.98
2018-11-14T01:28:22.140Z,1004.90
2018-11-14T01:29:22.124Z,1004.90
2018-11-14T01:30:22.113Z,1004.97
2018-11-14T01:31:22.115Z,1004.89
2018-11-14T01:32:22.108Z,1005.00
2018-11-14T01:33:22.118Z,1004.95
2018-11-14T01:34:22.073Z,1004.90
2018-11-14T01:35:22.064Z,1004.90
2018-11-14T01:36:22.055Z,1004.90
2018-11-14T01:37:22.069Z,1004.98
2018-11-14T01:38:22.033Z,1004.89
2018-11-14T01:39:22.059Z,1004.92
2018-11-14T01:40:22.014Z,1004.88
2018-11-14T01:41:22.005Z,1004.92
2018-11-14T01:42:22.001Z,1004.91
2018-11-14T01:43:21.977Z,1004.94
2018-11-14T01:44:21.967Z,1004.94
2018-11-14T01:45:22.011Z,1004.90
2018-11-14T01:46:21.946Z,1004.86
2018-11-14T01:47:21.941Z,1004.89
2018-11-14T01:48:21.944Z,1004.89
2018-11-14T01:49:21.919Z,1004.86
2018-11-14T01:50:21.918Z,1004.84
2018-11-14T01:51:21.931Z,1004.85
2018-11-14T01:52:21.883Z,1004.81
2018-11-14T01:53:21.892Z,1004.83
2018-11-14T01:54:21.871Z,1004.81
2018-11-14T01:55:21.853Z,1004.82
2018-11-14T01:56:21.845Z,1004.78
2018-11-14T01:57:21.896Z,1004.75
2018-11-14T01:58:21.842Z,1004.81
2018-11-14T01:59:21.813Z,1004.76
2018-11-14T02:00:21.805Z,1004.71
2018-11-14T02:01:21.802Z,1004.71
2018-11-14T02:02:21.792Z,1004.69
2018-11-14T02:03:21.817Z,1004.73
2018-11-14T02:04:21.757Z,1004.69
2018-11-14T02:05:21.748Z,1004.68
2018-11-14T02:06:21.738Z,1004.71
2018-11-14T02:07:21.727Z,1004.65
2018-11-14T02:08:21.731Z,1004.68
2018-11-14T02:09:21.750Z,1004.73
2018-11-14T02:10:21.700Z,1004.71
2018-11-14T02:11:21.685Z,1004.71
2018-11-14T02:12:21.674Z,1004.73
2018-11-14T02:13:21.675Z,1004.72
2018-11-14T02:14:21.658Z,1004.71
2018-11-14T02:15:21.686Z,1004.76
2018-11-14T02:16:21.634Z,1004.71
2018-11-14T02:17:21.625Z,1004.76
2018-11-14T02:18:21.623Z,1004.77
2018-11-14T02:19:21.600Z,1004.80
2018-11-14T02:20:21.590Z,1004.75
2018-11-14T02:21:21.633Z,1004.78
2018-11-14T02:22:21.569Z,1004.78
2018-11-14T02:23:21.575Z,1004.75
2018-11-14T02:24:21.554Z,1004.74
2018-11-14T02:25:21.540Z,1004.74
2018-11-14T02:26:21.530Z,1004.73
2018-11-14T02:27:21.568Z,1004.75
2018-11-14T02:28:21.522Z,1004.71
2018-11-14T02:29:21.506Z,1004.74
2018-11-14T02:30:21.487Z,1004.74
2018-11-14T02:31:21.475Z,1004.70
2018-11-14T02:32:21.463Z,1004.76
2018-11-14T02:33:21.508Z,1004.72
2018-11-14T02:34:21.440Z,1004.76
2018-11-14T02:35:21.433Z,1004.75
2018-11-14T02:36:21.422Z,1004.71
2018-11-14T02:37:21.412Z,1004.66
2018-11-14T02:38:21.417Z,1004.68
2018-11-14T02:39:21.433Z,1004.68
2018-11-14T02:40:21.387Z,1004.64
2018-11-14T02:41:21.370Z,1004.60
2018-11-14T02:42:21.362Z,1004.54
2018-11-14T02:43:21.361Z,1004.52
2018-11-14T02:44:21.342Z,1004.51
2018-11-14T02:45:21.381Z,1004.51
2018-11-14T02:46:21.317Z,1004.51
2018-11-14T02:47:21.308Z,1004.54
2018-11-14T02:48:21.315Z,1004.53
2018-11-14T02:49:21.290Z,1004.56
2018-11-14T02:50:21.276Z,1004.49
2018-11-14T02:51:21.301Z,1004.57
2018-11-14T02:52:21.287Z,1004.51
2018-11-14T02:53:21.261Z,1004.52
2018-11-14T02:54:21.268Z,1004.50
2018-11-14T02:55:21.223Z,1004.44
2018-11-14T02:56:21.212Z,1004.45
2018-11-14T02:57:21.255Z,1004.50
2018-11-14T02:58:21.204Z,1004.52
2018-11-14T02:59:21.179Z,1004.46
2018-11-14T03:00:21.168Z,1004.54
2018-11-14T03:01:21.158Z,1004.53
2018-11-14T03:02:21.146Z,1004.51
2018-11-14T03:03:21.201Z,1004.53
2018-11-14T03:04:21.129Z,1004.53
2018-11-14T03:05:21.121Z,1004.56
2018-11-14T03:06:21.107Z,1004.50
2018-11-14T03:07:21.100Z,1004.52
2018-11-14T03:08:21.098Z,1004.51
2018-11-14T03:09:21.115Z,1004.44
2018-11-14T03:10:21.062Z,1004.45
2018-11-14T03:11:21.054Z,1004.48
2018-11-14T03:12:21.166Z,1004.46
2018-11-14T03:13:21.046Z,1004.41
2018-11-14T03:14:21.024Z,1004.38
2018-11-14T03:15:21.047Z,1004.42
2018-11-14T03:16:21.000Z,1004.42
2018-11-14T03:17:20.989Z,1004.39
2018-11-14T03:18:20.991Z,1004.38
2018-11-14T03:19:20.968Z,1004.37
2018-11-14T03:20:20.956Z,1004.38
2018-11-14T03:21:20.996Z,1004.37
2018-11-14T03:22:20.938Z,1004.35
2018-11-14T03:23:20.944Z,1004.44
2018-11-14T03:24:20.916Z,1004.41
2018-11-14T03:25:20.916Z,1004.35
2018-11-14T03:26:20.931Z,1004.35
2018-11-14T03:27:20.938Z,1004.35
2018-11-14T03:28:20.890Z,1004.32
2018-11-14T03:29:20.863Z,1004.32
2018-11-14T03:30:20.856Z,1004.30
2018-11-14T03:31:20.844Z,1004.27
2018-11-14T03:32:20.833Z,1004.26
2018-11-14T03:33:21.307Z,1004.27
2018-11-14T03:34:20.816Z,1004.24
2018-11-14T03:35:20.803Z,1004.21
2018-11-14T03:36:20.793Z,1004.25
2018-11-14T03:37:20.784Z,1004.24
2018-11-14T03:38:20.794Z,1004.21
2018-11-14T03:39:20.847Z,1004.25
2018-11-14T03:40:20.756Z,1004.23
2018-11-14T03:41:20.737Z,1004.20
2018-11-14T03:42:20.730Z,1004.18
2018-11-14T03:43:20.719Z,1004.18
2018-11-14T03:44:20.719Z,1004.18
2018-11-14T03:45:20.720Z,1004.18
2018-11-14T03:46:20.691Z,1004.20
2018-11-14T03:47:20.677Z,1004.18
2018-11-14T03:48:20.667Z,1004.16
2018-11-14T03:49:20.669Z,1004.10
2018-11-14T03:50:20.648Z,1004.15
2018-11-14T03:51:20.698Z,1004.19
2018-11-14T03:52:20.621Z,1004.15
2018-11-14T03:53:20.613Z,1004.19
2018-11-14T03:54:20.619Z,1004.17
2018-11-14T03:55:20.592Z,1004.16
2018-11-14T03:56:20.583Z,1004.17
2018-11-14T03:57:20.619Z,1004.20
2018-11-14T03:58:20.614Z,1004.21
2018-11-14T03:59:20.566Z,1004.22
2018-11-14T04:00:20.541Z,1004.19
2018-11-14T04:01:20.542Z,1004.20
2018-11-14T04:02:20.519Z,1004.16
2018-11-14T04:03:20.547Z,1004.22
2018-11-14T04:04:20.513Z,1004.16
2018-11-14T04:05:20.551Z,1004.21
2018-11-14T04:06:20.480Z,1004.23
2018-11-14T04:07:20.470Z,1004.20
2018-11-14T04:08:20.456Z,1004.23
2018-11-14T04:09:20.575Z,1004.19
2018-11-14T04:10:20.434Z,1004.15
2018-11-14T04:11:20.428Z,1004.21
2018-11-14T04:12:20.467Z,1004.18
2018-11-14T04:13:20.402Z,1004.18
2018-11-14T04:14:20.409Z,1004.16
2018-11-14T04:15:20.431Z,1004.11
2018-11-14T04:16:20.369Z,1004.15
2018-11-14T04:17:20.361Z,1004.17
2018-11-14T04:18:20.352Z,1004.16
2018-11-14T04:19:20.360Z,1004.14
2018-11-14T04:20:20.328Z,1004.13
2018-11-14T04:21:20.336Z,1004.21
2018-11-14T04:22:20.307Z,1004.17
2018-11-14T04:23:20.302Z,1004.19
2018-11-14T04:24:20.299Z,1004.22
2018-11-14T04:25:20.276Z,1004.15
2018-11-14T04:26:20.268Z,1004.15
2018-11-14T04:27:20.279Z,1004.15
2018-11-14T04:28:20.248Z,1004.13
2018-11-14T04:29:20.249Z,1004.11
2018-11-14T04:30:20.229Z,1004.16
2018-11-14T04:31:20.218Z,1004.16
2018-11-14T04:32:20.204Z,1004.13
2018-11-14T04:33:20.197Z,1004.14
2018-11-14T04:34:20.243Z,1004.14
2018-11-14T04:35:20.171Z,1004.13
2018-11-14T04:36:20.177Z,1004.11
2018-11-14T04:37:20.150Z,1004.12
2018-11-14T04:38:20.142Z,1004.09
2018-11-14T04:39:20.146Z,1004.11
2018-11-14T04:40:20.153Z,1004.08
2018-11-14T04:41:20.113Z,1004.14
2018-11-14T04:42:20.098Z,1004.11
2018-11-14T04:43:20.089Z,1004.16
2018-11-14T04:44:20.094Z,1004.18
2018-11-14T04:45:20.067Z,1004.17
2018-11-14T04:46:20.122Z,1004.07
2018-11-14T04:47:20.052Z,1004.14
2018-11-14T04:48:20.040Z,1004.15
2018-11-14T04:49:20.039Z,1004.13
2018-11-14T04:50:20.025Z,1004.16
2018-11-14T04:51:20.005Z,1004.10
2018-11-14T04:52:20.031Z,1004.13
2018-11-14T04:53:19.988Z,1004.08
2018-11-14T04:54:19.996Z,1004.11
2018-11-14T04:55:19.963Z,1004.11
2018-11-14T04:56:19.955Z,1004.07
2018-11-14T04:57:19.941Z,1004.11
2018-11-14T04:58:19.965Z,1004.05
2018-11-14T04:59:19.935Z,1004.05
2018-11-14T05:00:19.909Z,1003.99
2018-11-14T05:01:19.899Z,1004.04
2018-11-14T05:02:19.920Z,1004.02
2018-11-14T05:03:19.884Z,1004.04
2018-11-14T05:04:19.915Z,1004.03
2018-11-14T05:05:19.864Z,1004.06
2018-11-14T05:06:19.849Z,1004.07
2018-11-14T05:07:19.841Z,1004.06
2018-11-14T05:08:19.832Z,1004.01
2018-11-14T05:09:19.831Z,1004.06
2018-11-14T05:10:19.851Z,1004.06
2018-11-14T05:11:19.796Z,1004.00
2018-11-14T05:12:19.786Z,1004.04
2018-11-14T05:13:19.773Z,1004.04
2018-11-14T05:14:19.788Z,1004.01
2018-11-14T05:15:19.764Z,1004.06
2018-11-14T05:16:19.798Z,1004.01
2018-11-14T05:17:19.735Z,1004.03
2018-11-14T05:18:19.722Z,1003.99
2018-11-14T05:19:19.725Z,1004.02
2018-11-14T05:20:19.713Z,1004.02
2018-11-14T05:21:19.690Z,1004.01
2018-11-14T05:22:19.723Z,1004.07
2018-11-14T05:23:19.673Z,1004.08
2018-11-14T05:24:19.752Z,1004.07
2018-11-14T05:25:19.652Z,1004.03
2018-11-14T05:26:19.638Z,1003.98
2018-11-14T05:27:19.631Z,1004.00
2018-11-14T05:28:19.659Z,1003.97
2018-11-14T05:29:19.627Z,1004.01
2018-11-14T05:30:19.595Z,1004.02
2018-11-14T05:31:19.595Z,1004.06
2018-11-14T05:32:19.576Z,1004.04
2018-11-14T05:33:19.566Z,1004.07
2018-11-14T05:34:19.567Z,1004.02
2018-11-14T05:35:19.588Z,1004.05
2018-11-14T05:36:19.538Z,1004.02
2018-11-14T05:37:19.523Z,1004.02
2018-11-14T05:38:19.515Z,1004.01
2018-11-14T05:39:19.516Z,1004.04
2018-11-14T05:40:19.604Z,1004.05
2018-11-14T05:41:19.510Z,1003.99
2018-11-14T05:42:19.471Z,1004.01
2018-11-14T05:43:19.462Z,1004.03
2018-11-14T05:44:19.464Z,1004.03
2018-11-14T05:45:19.503Z,1004.03
2018-11-14T05:46:19.431Z,1004.08
2018-11-14T05:47:19.454Z,1004.11
2018-11-14T05:48:19.409Z,1004.10
2018-11-14T05:49:19.415Z,1004.05
2018-11-14T05:50:19.385Z,1004.08
2018-11-14T05:51:19.376Z,1004.10
2018-11-14T05:52:19.364Z,1004.13
2018-11-14T05:53:19.380Z,1004.12
2018-11-14T05:54:19.359Z,1004.13
2018-11-14T05:55:19.334Z,1004.09
2018-11-14T05:56:19.324Z,1004.08
2018-11-14T05:57:19.315Z,1004.08
2018-11-14T05:58:19.302Z,1004.10
2018-11-14T05:59:19.323Z,1004.11
2018-11-14T06:00:19.283Z,1004.11
2018-11-14T06:01:19.272Z,1004.10
2018-11-14T06:02:19.262Z,1004.13
2018-11-14T06:03:19.257Z,1004.21
2018-11-14T06:04:19.262Z,1004.21
2018-11-14T06:05:19.303Z,1004.20
2018-11-14T06:06:19.219Z,1004.25
2018-11-14T06:07:19.317Z,1004.19
2018-11-14T06:08:19.198Z,1004.17
2018-11-14T06:09:19.186Z,1004.14
2018-11-14T06:10:19.192Z,1004.13
2018-11-14T06:11:19.216Z,1004.08
2018-11-14T06:12:19.156Z,1004.09
2018-11-14T06:13:19.144Z,1004.12
2018-11-14T06:14:19.145Z,1004.06
2018-11-14T06:15:19.303Z,1004.11
2018-11-14T06:16:19.120Z,1004.13
2018-11-14T06:17:19.167Z,1004.09
2018-11-14T06:18:19.095Z,1004.12
2018-11-14T06:19:19.082Z,1004.14
2018-11-14T06:20:19.090Z,1004.10
2018-11-14T06:21:19.063Z,1004.10
2018-11-14T06:22:19.063Z,1004.16
2018-11-14T06:23:19.082Z,1004.15
2018-11-14T06:24:19.034Z,1004.16
2018-11-14T06:25:19.033Z,1004.12
2018-11-14T06:26:19.009Z,1004.18
2018-11-14T06:27:19.001Z,1004.27
2018-11-14T06:28:18.994Z,1004.20
2018-11-14T06:29:19.007Z,1004.25
2018-11-14T06:30:18.980Z,1004.21
2018-11-14T06:31:18.959Z,1004.24
2018-11-14T06:32:18.946Z,1004.21
2018-11-14T06:33:18.937Z,1004.15
2018-11-14T06:34:18.923Z,1004.26
2018-11-14T06:35:18.986Z,1004.23
2018-11-14T06:36:18.908Z,1004.27
2018-11-14T06:37:18.893Z,1004.29
2018-11-14T06:38:18.887Z,1004.29
2018-11-14T06:39:18.871Z,1004.37
2018-11-14T06:40:18.886Z,1004.27
2018-11-14T06:41:18.904Z,1004.34
2018-11-14T06:42:18.838Z,1004.29
2018-11-14T06:43:18.829Z,1004.31
2018-11-14T06:44:18.825Z,1004.29
2018-11-14T06:45:18.807Z,1004.30
2018-11-14T06:46:18.812Z,1004.28
2018-11-14T06:47:18.833Z,1004.30
2018-11-14T06:48:18.778Z,1004.31
2018-11-14T06:49:18.773Z,1004.29
2018-11-14T06:50:18.755Z,1004.23
2018-11-14T06:51:18.762Z,1004.27
2018-11-14T06:52:18.735Z,1004.20
2018-11-14T06:53:18.755Z,1004.22
2018-11-14T06:54:18.713Z,1004.23
2018-11-14T06:55:18.705Z,1004.25
2018-11-14T06:56:18.704Z,1004.30
2018-11-14T06:57:18.685Z,1004.32
2018-11-14T06:58:18.676Z,1004.30
2018-11-14T06:59:18.848Z,1004.33
2018-11-14T07:00:18.654Z,1004.32
2018-11-14T07:01:18.659Z,1004.38
2018-11-14T07:02:18.632Z,1004.37
2018-11-14T07:03:18.637Z,1004.35
2018-11-14T07:04:18.613Z,1004.36
2018-11-14T07:05:18.819Z,1004.26
2018-11-14T07:06:18.699Z,1004.29
2018-11-14T07:07:18.576Z,1004.29
2018-11-14T07:08:18.570Z,1004.27
2018-11-14T07:09:18.566Z,1004.31
2018-11-14T07:10:18.550Z,1004.29
2018-11-14T07:11:18.595Z,1004.28
2018-11-14T07:12:18.524Z,1004.23
2018-11-14T07:13:18.517Z,1004.30
2018-11-14T07:14:18.503Z,1004.29
2018-11-14T07:15:18.495Z,1004.30
2018-11-14T07:16:18.493Z,1004.28
2018-11-14T07:17:18.518Z,1004.30
2018-11-14T07:18:18.477Z,1004.37
2018-11-14T07:19:18.452Z,1004.41
2018-11-14T07:20:18.441Z,1004.41
2018-11-14T07:21:18.443Z,1004.37
2018-11-14T07:22:18.420Z,1004.38
2018-11-14T07:23:18.435Z,1004.38
2018-11-14T07:24:18.412Z,1004.45
2018-11-14T07:25:18.387Z,1004.41
2018-11-14T07:26:18.392Z,1004.48
2018-11-14T07:27:18.367Z,1004.52
2018-11-14T07:28:18.356Z,1004.42
2018-11-14T07:29:18.387Z,1004.42
2018-11-14T07:30:18.334Z,1004.35
2018-11-14T07:31:18.337Z,1004.40
2018-11-14T07:32:18.428Z,1004.39
2018-11-14T07:33:18.302Z,1004.38
2018-11-14T07:34:18.295Z,1004.42
2018-11-14T07:35:18.336Z,1004.48
2018-11-14T07:36:18.287Z,1004.32
2018-11-14T07:37:18.261Z,1004.35
2018-11-14T07:38:18.250Z,1004.25
2018-11-14T07:39:18.238Z,1004.27
2018-11-14T07:40:18.232Z,1004.22
2018-11-14T07:41:18.263Z,1004.18
2018-11-14T07:42:18.207Z,1004.14
2018-11-14T07:43:18.196Z,1004.07
2018-11-14T07:44:18.188Z,1004.07
2018-11-14T07:45:18.176Z,1004.06
2018-11-14T07:46:18.176Z,1004.07
2018-11-14T07:47:18.193Z,1004.08
2018-11-14T07:48:18.142Z,1004.06
2018-11-14T07:49:18.131Z,1004.10
2018-11-14T07:50:18.150Z,1004.18
2018-11-14T07:51:18.125Z,1004.14
2018-11-14T07:52:18.101Z,1004.14
2018-11-14T07:53:18.139Z,1004.10
2018-11-14T07:54:18.081Z,1004.12
2018-11-14T07:55:18.073Z,1004.15
2018-11-14T07:56:18.070Z,1004.13
2018-11-14T07:57:18.047Z,1004.20
2018-11-14T07:58:18.047Z,1004.23
2018-11-14T07:59:18.027Z,1004.18
2018-11-14T08:00:18.062Z,1004.14
2018-11-14T08:01:18.025Z,1004.12
2018-11-14T08:02:18.135Z,1004.11
2018-11-14T08:03:17.983Z,1004.06
2018-11-14T08:04:17.973Z,1004.04
2018-11-14T08:05:17.963Z,1004.03
2018-11-14T08:06:18.018Z,1004.01
2018-11-14T08:07:17.959Z,1004.03
2018-11-14T08:08:18.066Z,1004.02
2018-11-14T08:09:17.919Z,1003.98
2018-11-14T08:10:17.907Z,1003.95
2018-11-14T08:11:17.897Z,1003.98
2018-11-14T08:12:17.954Z,1003.92
2018-11-14T08:13:17.874Z,1003.97
2018-11-14T08:14:17.867Z,1003.98
2018-11-14T08:15:17.854Z,1003.97
2018-11-14T08:16:17.850Z,1003.94
2018-11-14T08:17:17.848Z,1003.96
2018-11-14T08:18:17.893Z,1003.95
2018-11-14T08:19:17.811Z,1003.92
2018-11-14T08:20:17.800Z,1003.94
2018-11-14T08:21:17.794Z,1003.91
2018-11-14T08:22:17.796Z,1003.86
2018-11-14T08:23:17.768Z,1003.84
2018-11-14T08:24:17.787Z,1003.79
2018-11-14T08:25:17.749Z,1003.75
2018-11-14T08:26:17.739Z,1003.76
2018-11-14T08:27:17.739Z,1003.82
2018-11-14T08:28:17.716Z,1003.74
2018-11-14T08:29:17.708Z,1003.71
2018-11-14T08:30:17.737Z,1003.74
2018-11-14T08:31:17.685Z,1003.77
2018-11-14T08:32:17.685Z,1003.73
2018-11-14T08:33:17.663Z,1003.69
2018-11-14T08:34:17.651Z,1003.64
2018-11-14T08:35:17.639Z,1003.70
2018-11-14T08:36:17.716Z,1003.69
2018-11-14T08:37:17.634Z,1003.63
2018-11-14T08:38:17.610Z,1003.62
2018-11-14T08:39:17.624Z,1003.61
2018-11-14T08:40:17.588Z,1003.65
2018-11-14T08:41:17.577Z,1003.69
2018-11-14T08:42:17.619Z,1003.62
2018-11-14T08:43:17.556Z,1003.66
2018-11-14T08:44:17.551Z,1003.69
2018-11-14T08:45:17.538Z,1003.67
2018-11-14T08:46:17.524Z,1003.64
2018-11-14T08:47:17.529Z,1003.59
2018-11-14T08:48:17.547Z,1003.61
2018-11-14T08:49:17.493Z,1003.58
2018-11-14T08:50:17.554Z,1003.59
2018-11-14T08:51:17.474Z,1003.62
2018-11-14T08:52:17.474Z,1003.66
2018-11-14T08:53:17.450Z,1003.72
2018-11-14T08:54:17.478Z,1003.64
2018-11-14T08:55:17.431Z,1003.70
2018-11-14T08:56:17.419Z,1003.66
2018-11-14T08:57:17.429Z,1003.64
2018-11-14T08:58:17.399Z,1003.60
2018-11-14T08:59:17.388Z,1003.57
2018-11-14T09:00:17.399Z,1003.61
2018-11-14T09:01:17.366Z,1003.64
2018-11-14T09:02:17.379Z,1003.76
2018-11-14T09:03:17.347Z,1003.76
2018-11-14T09:04:17.334Z,1003.75
2018-11-14T09:05:17.323Z,1003.80
2018-11-14T09:06:17.427Z,1003.79
2018-11-14T09:07:17.328Z,1003.77
2018-11-14T09:08:17.291Z,1003.72
2018-11-14T09:09:17.280Z,1003.71
2018-11-14T09:10:17.271Z,1003.73
2018-11-14T09:11:17.389Z,1003.75
2018-11-14T09:12:17.360Z,1003.72
2018-11-14T09:13:17.251Z,1003.72
2018-11-14T09:14:17.235Z,1003.71
2018-11-14T09:15:17.220Z,1003.70
2018-11-14T09:16:17.206Z,1003.69
2018-11-14T09:17:17.195Z,1003.65
2018-11-14T09:18:17.266Z,1003.71
2018-11-14T09:19:17.177Z,1003.71
2018-11-14T09:20:17.162Z,1003.72
2018-11-14T09:21:17.153Z,1003.75
2018-11-14T09:22:17.143Z,1003.68
2018-11-14T09:23:17.144Z,1003.72
2018-11-14T09:24:17.152Z,1003.75
2018-11-14T09:25:17.115Z,1003.72
2018-11-14T09:26:17.099Z,1003.74
2018-11-14T09:27:17.096Z,1003.65
2018-11-14T09:28:17.095Z,1003.69
2018-11-14T09:29:17.070Z,1003.71
2018-11-14T09:30:17.102Z,1003.71
2018-11-14T09:31:17.051Z,1003.65
2018-11-14T09:32:17.039Z,1003.65
2018-11-14T09:33:17.106Z,1003.70
2018-11-14T09:34:17.018Z,1003.65
2018-11-14T09:35:17.006Z,1003.64
2018-11-14T09:36:17.024Z,1003.68
2018-11-14T09:37:16.987Z,1003.62
2018-11-14T09:38:16.997Z,1003.68
2018-11-14T09:39:16.962Z,1003.68
2018-11-14T09:40:16.951Z,1003.68
2018-11-14T09:41:16.965Z,1003.67
2018-11-14T09:42:16.957Z,1003.64
2018-11-14T09:43:16.934Z,1003.57
2018-11-14T09:44:16.917Z,1003.56
2018-11-14T09:45:16.900Z,1003.54
2018-11-14T09:46:16.889Z,1003.58
2018-11-14T09:47:16.880Z,1003.55
2018-11-14T09:48:16.921Z,1003.62
2018-11-14T09:49:16.935Z,1003.58
2018-11-14T09:50:16.846Z,1003.62
2018-11-14T09:51:16.834Z,1003.56
2018-11-14T09:52:16.823Z,1003.59
2018-11-14T09:53:16.907Z,1003.54
2018-11-14T09:54:16.837Z,1003.59
2018-11-14T09:55:16.794Z,1003.49
2018-11-14T09:56:16.783Z,1003.51
2018-11-14T09:57:16.770Z,1003.49
2018-11-14T09:58:16.773Z,1003.50
2018-11-14T09:59:16.755Z,1003.50
2018-11-14T10:00:16.767Z,1003.50
2018-11-14T10:01:16.726Z,1003.56
2018-11-14T10:02:16.716Z,1003.57
2018-11-14T10:03:16.716Z,1003.49
2018-11-14T10:04:16.702Z,1003.46
2018-11-14T10:05:16.685Z,1003.42
2018-11-14T10:06:16.698Z,1003.45
2018-11-14T10:07:16.662Z,1003.40
2018-11-14T10:08:16.665Z,1003.41
2018-11-14T10:09:16.639Z,1003.40
2018-11-14T10:10:16.631Z,1003.34
2018-11-14T10:11:16.667Z,1003.34
2018-11-14T10:12:16.629Z,1003.32
2018-11-14T10:13:16.633Z,1003.38
2018-11-14T10:14:16.586Z,1003.37
2018-11-14T10:15:16.579Z,1003.31
2018-11-14T10:16:16.573Z,1003.35
2018-11-14T10:17:16.588Z,1003.27
2018-11-14T10:18:16.633Z,1003.26
2018-11-14T10:19:16.537Z,1003.23
2018-11-14T10:20:16.521Z,1003.25
2018-11-14T10:21:16.631Z,1003.22
2018-11-14T10:22:16.500Z,1003.19
2018-11-14T10:23:16.545Z,1003.12
2018-11-14T10:24:16.480Z,1003.14
2018-11-14T10:25:16.468Z,1003.15
2018-11-14T10:26:16.461Z,1003.14
2018-11-14T10:27:16.453Z,1003.14
2018-11-14T10:28:16.451Z,1003.15
2018-11-14T10:29:16.470Z,1003.14
2018-11-14T10:30:16.429Z,1003.09
2018-11-14T10:31:16.402Z,1003.05
2018-11-14T10:32:16.394Z,1003.10
2018-11-14T10:33:16.400Z,1003.03
2018-11-14T10:34:16.372Z,1003.05
2018-11-14T10:35:16.486Z,1003.03
2018-11-14T10:36:16.352Z,1002.99
2018-11-14T10:37:16.341Z,1003.02
2018-11-14T10:38:16.343Z,1003.07
2018-11-14T10:39:16.319Z,1003.07
2018-11-14T10:40:16.308Z,1002.93
2018-11-14T10:41:16.379Z,1002.98
2018-11-14T10:42:16.285Z,1002.97
2018-11-14T10:43:16.293Z,1002.97
2018-11-14T10:44:16.266Z,1002.95
2018-11-14T10:45:16.258Z,1002.92
2018-11-14T10:46:16.243Z,1002.92
2018-11-14T10:47:16.288Z,1002.90
2018-11-14T10:48:16.249Z,1002.93
2018-11-14T10:49:16.213Z,1002.91
2018-11-14T10:50:16.202Z,1002.89
2018-11-14T10:51:16.190Z,1002.88
2018-11-14T10:52:16.179Z,1002.86
2018-11-14T10:53:16.197Z,1002.79
2018-11-14T10:54:16.173Z,1002.81
2018-11-14T10:55:16.151Z,1002.82
2018-11-14T10:56:16.138Z,1002.80
2018-11-14T10:57:16.127Z,1002.77
2018-11-14T10:58:16.175Z,1002.79
2018-11-14T10:59:16.173Z,1002.77
2018-11-14T11:00:16.093Z,1002.76
2018-11-14T11:01:16.083Z,1002.71
2018-11-14T11:02:16.083Z,1002.76
2018-11-14T11:03:16.067Z,1002.75
2018-11-14T11:04:16.080Z,1002.79
2018-11-14T11:05:16.039Z,1002.78
2018-11-14T11:06:16.074Z,1002.83
2018-11-14T11:07:16.022Z,1002.77
2018-11-14T11:08:16.205Z,1002.83
2018-11-14T11:09:16.013Z,1002.79
2018-11-14T11:10:15.994Z,1002.79
2018-11-14T11:11:15.974Z,1002.77
2018-11-14T11:12:16.028Z,1002.83
2018-11-14T11:13:15.964Z,1002.79
2018-11-14T11:14:15.955Z,1002.79
2018-11-14T11:15:15.932Z,1002.77
2018-11-14T11:16:15.922Z,1002.76
2018-11-14T11:17:15.917Z,1002.76
2018-11-14T11:18:15.937Z,1002.74
2018-11-14T11:19:15.900Z,1002.74
2018-11-14T11:20:15.878Z,1002.70
2018-11-14T11:21:15.869Z,1002.70
2018-11-14T11:22:15.856Z,1002.75
2018-11-14T11:23:15.856Z,1002.75
2018-11-14T11:24:15.878Z,1002.70
2018-11-14T11:25:15.824Z,1002.73
2018-11-14T11:26:15.813Z,1002.73
2018-11-14T11:27:15.803Z,1002.70
2018-11-14T11:28:15.800Z,1002.68
2018-11-14T11:29:15.815Z,1002.78
2018-11-14T11:30:15.801Z,1002.75
2018-11-14T11:31:15.769Z,1002.78
2018-11-14T11:32:15.748Z,1002.72
2018-11-14T11:33:15.745Z,1002.70
2018-11-14T11:34:15.727Z,1002.76
2018-11-14T11:35:15.743Z,1002.74
2018-11-14T11:36:15.734Z,1002.73
2018-11-14T11:37:15.696Z,1002.75
2018-11-14T11:38:15.771Z,1002.70
2018-11-14T11:39:15.697Z,1002.66
2018-11-14T11:40:15.677Z,1002.70
2018-11-14T11:41:15.709Z,1002.69
2018-11-14T11:42:15.668Z,1002.66
2018-11-14T11:43:15.649Z,1002.64
2018-11-14T11:44:15.655Z,1002.69
2018-11-14T11:45:15.748Z,1002.70
2018-11-14T11:46:15.597Z,1002.60
2018-11-14T11:47:15.588Z,1002.61
2018-11-14T11:48:15.578Z,1002.59
2018-11-14T11:49:15.769Z,1002.58
2018-11-14T11:50:15.567Z,1002.55
2018-11-14T11:51:15.718Z,1002.58
2018-11-14T11:52:15.533Z,1002.58
2018-11-14T11:53:15.635Z,1002.61
2018-11-14T11:54:15.512Z,1002.57
2018-11-14T11:55:15.918Z,1002.58
2018-11-14T11:56:15.494Z,1002.56
2018-11-14T11:57:15.496Z,1002.57
2018-11-14T11:58:15.498Z,1002.50
2018-11-14T11:59:15.509Z,1002.50
2018-11-14T12:00:15.574Z,1002.43
2018-11-14T12:01:15.470Z,1002.44
2018-11-14T12:02:15.534Z,1002.41
2018-11-14T12:03:15.448Z,1002.38
2018-11-14T12:04:15.405Z,1002.31
2018-11-14T12:05:15.410Z,1002.32